<?xml version="1.0" encoding="UTF-8" standalone="no" ?>
<gpx xmlns="http://www.topografix.com/GPX/1/1" xmlns:xsi="http://www.w3.org/2001/XMLSchema-instance" xsi:schemaLocation="http://www.topografix.com/GPX/1/1 http://www.topografix.com/GPX/1/1/gpx.xsd" version="1.1" creator="VisuGPX - https://www.visugpx.com">
  <metadata>
    <name>combe marion et coillu bordel </name>
    <desc><![CDATA[ski de la combe marion vers le coillu aller et retour]]></desc>
  </metadata>
  <wpt lat="46.17959" lon="5.91672">
    <ele>494.96</ele>
    <name><![CDATA[001]]></name>
  </wpt>
  <wpt lat="45.96373" lon="6.77729">
    <ele>1768.94</ele>
    <name><![CDATA[002]]></name>
  </wpt>
  <wpt lat="45.92289" lon="6.48432">
    <ele>1547.84</ele>
    <name><![CDATA[003]]></name>
  </wpt>
  <wpt lat="45.92679" lon="6.51817">
    <ele>2077.52</ele>
    <name><![CDATA[004]]></name>
  </wpt>
  <wpt lat="46.17998" lon="5.91662">
    <ele>426.23</ele>
    <name><![CDATA[005]]></name>
  </wpt>
  <wpt lat="46.17981" lon="5.91659">
    <ele>599.98</ele>
    <name><![CDATA[006]]></name>
  </wpt>
  <wpt lat="46.25476" lon="5.92722">
    <ele>1635.8</ele>
    <name><![CDATA[007]]></name>
  </wpt>
  <wpt lat="46.25699" lon="5.92978">
    <ele>1441.61</ele>
    <name><![CDATA[008]]></name>
  </wpt>
  <trk>
    <name><![CDATA[ACTIVE LOG: 23 JAN 2010 15:10]]></name>
    <trkseg>
      <trkpt lat="46.25882" lon="5.99215">
        <ele>502.91</ele>
        <time>2010-01-23T14:10:46Z</time>
      </trkpt>
      <trkpt lat="46.25882" lon="5.99214">
        <ele>506.27</ele>
        <time>2010-01-23T14:10:48Z</time>
      </trkpt>
      <trkpt lat="46.25883" lon="5.99214">
        <ele>505.79</ele>
        <time>2010-01-23T14:10:51Z</time>
      </trkpt>
      <trkpt lat="46.25906" lon="5.99201">
        <ele>505.79</ele>
        <time>2010-01-23T14:11:03Z</time>
      </trkpt>
      <trkpt lat="46.25912" lon="5.99195">
        <ele>506.27</ele>
        <time>2010-01-23T14:11:12Z</time>
      </trkpt>
      <trkpt lat="46.25916" lon="5.99191">
        <ele>505.79</ele>
        <time>2010-01-23T14:11:22Z</time>
      </trkpt>
      <trkpt lat="46.25922" lon="5.99186">
        <ele>506.27</ele>
        <time>2010-01-23T14:11:45Z</time>
      </trkpt>
      <trkpt lat="46.25917" lon="5.99188">
        <ele>506.75</ele>
        <time>2010-01-23T14:12:18Z</time>
      </trkpt>
      <trkpt lat="46.25921" lon="5.9919">
        <ele>506.27</ele>
        <time>2010-01-23T14:12:35Z</time>
      </trkpt>
      <trkpt lat="46.25922" lon="5.99192">
        <ele>506.27</ele>
        <time>2010-01-23T14:12:36Z</time>
      </trkpt>
      <trkpt lat="46.25925" lon="5.99194">
        <ele>505.79</ele>
        <time>2010-01-23T14:12:54Z</time>
      </trkpt>
      <trkpt lat="46.25926" lon="5.99198">
        <ele>506.27</ele>
        <time>2010-01-23T14:13:15Z</time>
      </trkpt>
      <trkpt lat="46.25931" lon="5.99193">
        <ele>506.75</ele>
        <time>2010-01-23T14:13:35Z</time>
      </trkpt>
      <trkpt lat="46.25928" lon="5.99188">
        <ele>503.39</ele>
        <time>2010-01-23T14:13:40Z</time>
      </trkpt>
      <trkpt lat="46.25928" lon="5.99188">
        <ele>506.75</ele>
        <time>2010-01-23T14:13:41Z</time>
      </trkpt>
      <trkpt lat="46.2592" lon="5.99181">
        <ele>503.39</ele>
        <time>2010-01-23T14:13:50Z</time>
      </trkpt>
      <trkpt lat="46.25919" lon="5.99181">
        <ele>506.75</ele>
        <time>2010-01-23T14:13:51Z</time>
      </trkpt>
      <trkpt lat="46.25919" lon="5.99171">
        <ele>502.91</ele>
        <time>2010-01-23T14:14:00Z</time>
      </trkpt>
      <trkpt lat="46.25919" lon="5.9917">
        <ele>507.23</ele>
        <time>2010-01-23T14:14:01Z</time>
      </trkpt>
      <trkpt lat="46.2591" lon="5.99175">
        <ele>506.75</ele>
        <time>2010-01-23T14:14:20Z</time>
      </trkpt>
      <trkpt lat="46.25929" lon="5.99145">
        <ele>506.75</ele>
        <time>2010-01-23T14:15:00Z</time>
      </trkpt>
      <trkpt lat="46.25924" lon="5.99151">
        <ele>507.71</ele>
        <time>2010-01-23T14:15:30Z</time>
      </trkpt>
      <trkpt lat="46.25936" lon="5.99143">
        <ele>507.23</ele>
        <time>2010-01-23T14:15:53Z</time>
      </trkpt>
      <trkpt lat="46.25923" lon="5.99159">
        <ele>507.71</ele>
        <time>2010-01-23T14:16:22Z</time>
      </trkpt>
      <trkpt lat="46.25921" lon="5.99169">
        <ele>507.23</ele>
        <time>2010-01-23T14:16:41Z</time>
      </trkpt>
      <trkpt lat="46.25929" lon="5.99161">
        <ele>508.19</ele>
        <time>2010-01-23T14:16:58Z</time>
      </trkpt>
      <trkpt lat="46.25924" lon="5.99168">
        <ele>507.71</ele>
        <time>2010-01-23T14:17:14Z</time>
      </trkpt>
      <trkpt lat="46.25917" lon="5.99164">
        <ele>508.19</ele>
        <time>2010-01-23T14:18:48Z</time>
      </trkpt>
      <trkpt lat="46.25923" lon="5.99148">
        <ele>508.67</ele>
        <time>2010-01-23T14:19:14Z</time>
      </trkpt>
      <trkpt lat="46.25924" lon="5.99146">
        <ele>508.67</ele>
        <time>2010-01-23T14:19:46Z</time>
      </trkpt>
      <trkpt lat="46.25921" lon="5.99163">
        <ele>508.19</ele>
        <time>2010-01-23T14:20:04Z</time>
      </trkpt>
      <trkpt lat="46.25922" lon="5.99169">
        <ele>508.67</ele>
        <time>2010-01-23T14:20:20Z</time>
      </trkpt>
      <trkpt lat="46.25919" lon="5.99183">
        <ele>507.23</ele>
        <time>2010-01-23T14:20:40Z</time>
      </trkpt>
      <trkpt lat="46.25916" lon="5.99187">
        <ele>508.67</ele>
        <time>2010-01-23T14:20:48Z</time>
      </trkpt>
      <trkpt lat="46.25914" lon="5.99187">
        <ele>508.19</ele>
        <time>2010-01-23T14:20:49Z</time>
      </trkpt>
      <trkpt lat="46.25902" lon="5.99197">
        <ele>509.16</ele>
        <time>2010-01-23T14:21:07Z</time>
      </trkpt>
      <trkpt lat="46.25908" lon="5.99191">
        <ele>509.16</ele>
        <time>2010-01-23T14:21:22Z</time>
      </trkpt>
      <trkpt lat="46.25904" lon="5.99189">
        <ele>508.19</ele>
        <time>2010-01-23T14:21:59Z</time>
      </trkpt>
      <trkpt lat="46.25904" lon="5.99179">
        <ele>509.16</ele>
        <time>2010-01-23T14:22:25Z</time>
      </trkpt>
      <trkpt lat="46.25936" lon="5.99185">
        <ele>508.19</ele>
        <time>2010-01-23T14:22:41Z</time>
      </trkpt>
      <trkpt lat="46.25986" lon="5.99188">
        <ele>509.64</ele>
        <time>2010-01-23T14:23:15Z</time>
      </trkpt>
      <trkpt lat="46.25955" lon="5.99176">
        <ele>509.64</ele>
        <time>2010-01-23T14:23:30Z</time>
      </trkpt>
      <trkpt lat="46.25938" lon="5.99153">
        <ele>510.12</ele>
        <time>2010-01-23T14:23:51Z</time>
      </trkpt>
      <trkpt lat="46.25926" lon="5.99165">
        <ele>510.12</ele>
        <time>2010-01-23T14:24:39Z</time>
      </trkpt>
    </trkseg>
  </trk>
</gpx>